Manuccio II — IZFX — position and weather

sailwx.info

Track history (hours):
 
Tides and Currents Weather Stations Pressure Air Temp Water Temp Dewpoint Dewpoint Depression Visibility Wind Speed Wind Dir Waves Ship Positions

Manuccio II

Last reported at 2017-Oct-18 17:57 UTC. Time now 2017-Nov-19 01:24 UTC.
Position N 42°39' E 014°30'.
Warning: this ship's position is 31 days out of date.

Length 28 m.

MMSI: 247151150.

Date/timePositionNaut miles runAvg speedWind from/ knotsBaromVisibWave heightAir tempDewpointWater temp
2017-Oct-18 17:57N 42°39' E 014°30'2 3.8
2017-Oct-18 17:30N 42°40' E 014°32'2 0.2
2017-Oct-18 07:28N 42°39' E 014°34'5 0.3
2017-Oct-17 15:41N 42°44' E 014°37'1 3.5
2017-Oct-17 15:21N 42°45' E 014°37'1 3.1
2017-Oct-17 15:00N 42°46' E 014°37'10 1.6
2017-Oct-17 08:39N 42°42' E 014°24'1 3.7
2017-Oct-17 08:25N 42°42' E 014°23'8 3.6
2017-Oct-17 06:11N 42°38' E 014°13'3 3.3
2017-Oct-17 05:24N 42°40' E 014°12'1 3.8
2017-Oct-17 05:00N 42°42' E 014°11'4 3.7
2017-Oct-17 04:02N 42°45' E 014°09'1 3.7
2017-Oct-17 03:53N 42°46' E 014°09'2 3.0
2017-Oct-17 03:12N 42°48' E 014°08'1 3.3
2017-Oct-17 03:00N 42°47' E 014°08'2 3.8
2017-Oct-17 02:30N 42°45' E 014°09'2 3.7
2017-Oct-17 01:55N 42°43' E 014°10'2 3.7
2017-Oct-17 01:27N 42°42' E 014°11'2 3.0
2017-Oct-17 00:43N 42°39' E 014°12'3 3.6
2017-Oct-16 23:54N 42°37' E 014°14'2 3.6
2017-Oct-16 23:27N 42°36' E 014°15'2 3.6
2017-Oct-16 22:59N 42°34' E 014°17'16 1.6
2017-Oct-16 13:08N 42°41' E 014°36'1 3.5
2017-Oct-16 12:49N 42°40' E 014°37'1 3.5
2017-Oct-16 12:25N 42°39' E 014°37'9 2.5
2017-Oct-16 08:48N 42°42' E 014°25'1 3.7
2017-Oct-16 08:26N 42°41' E 014°23'2 3.6
2017-Oct-16 07:59N 42°41' E 014°21'2 3.6
2017-Oct-16 07:29N 42°41' E 014°19'6 2.7
2017-Oct-16 05:04N 42°43' E 014°10'1 3.8
2017-Oct-16 04:51N 42°44' E 014°10'1 3.7
2017-Oct-16 04:27N 42°45' E 014°09'  
Track history (hours):
 
Tides and Currents Weather Stations Pressure Air Temp Water Temp Dewpoint Dewpoint Depression Visibility Wind Speed Wind Dir Waves Ship Positions

Manuccio II

Last reported at 2017-Oct-18 17:57 UTC. Time now 2017-Nov-19 01:24 UTC.
Position N 42°39' E 014°30'.
Warning: this ship's position is 31 days out of date.

Length 28 m.

MMSI: 247151150.

Date/timePositionNaut miles runAvg speedWind from/ knotsBaromVisibWave heightAir tempDewpointWater temp
2017-Oct-18 17:57N 42°39' E 014°30'2 3.8
2017-Oct-18 17:30N 42°40' E 014°32'2 0.2
2017-Oct-18 07:28N 42°39' E 014°34'5 0.3
2017-Oct-17 15:41N 42°44' E 014°37'1 3.5
2017-Oct-17 15:21N 42°45' E 014°37'1 3.1
2017-Oct-17 15:00N 42°46' E 014°37'10 1.6
2017-Oct-17 08:39N 42°42' E 014°24'1 3.7
2017-Oct-17 08:25N 42°42' E 014°23'8 3.6
2017-Oct-17 06:11N 42°38' E 014°13'3 3.3
2017-Oct-17 05:24N 42°40' E 014°12'1 3.8
2017-Oct-17 05:00N 42°42' E 014°11'4 3.7
2017-Oct-17 04:02N 42°45' E 014°09'1 3.7
2017-Oct-17 03:53N 42°46' E 014°09'2 3.0
2017-Oct-17 03:12N 42°48' E 014°08'1 3.3
2017-Oct-17 03:00N 42°47' E 014°08'2 3.8
2017-Oct-17 02:30N 42°45' E 014°09'2 3.7
2017-Oct-17 01:55N 42°43' E 014°10'2 3.7
2017-Oct-17 01:27N 42°42' E 014°11'2 3.0
2017-Oct-17 00:43N 42°39' E 014°12'3 3.6
2017-Oct-16 23:54N 42°37' E 014°14'2 3.6
2017-Oct-16 23:27N 42°36' E 014°15'2 3.6
2017-Oct-16 22:59N 42°34' E 014°17'16 1.6
2017-Oct-16 13:08N 42°41' E 014°36'1 3.5
2017-Oct-16 12:49N 42°40' E 014°37'1 3.5
2017-Oct-16 12:25N 42°39' E 014°37'9 2.5
2017-Oct-16 08:48N 42°42' E 014°25'1 3.7
2017-Oct-16 08:26N 42°41' E 014°23'2 3.6
2017-Oct-16 07:59N 42°41' E 014°21'2 3.6
2017-Oct-16 07:29N 42°41' E 014°19'6 2.7
2017-Oct-16 05:04N 42°43' E 014°10'1 3.8
2017-Oct-16 04:51N 42°44' E 014°10'1 3.7
2017-Oct-16 04:27N 42°45' E 014°09'  

Dump ship's entire track history